Terminal Aerodrome Forecast
Issued by NWS Northern Indiana

Home | Current Version | Previous Version | Graphics & Text | Print | Product List | Glossary On
Versions: 1 2 3 4 5 6 7 8 9 10 11 12 13 14
000
FTUS43 KIWX 302339
TAFFWA
TAF
KFWA 302339Z 0100/0124 30006KT P6SM SCT040
     FM010600 28004KT 4SM BR SCT250
      TEMPO 0109/0112 2SM BR BKN006
     FM011300 31006KT P6SM BKN025
     FM011500 30008KT P6SM SCT040=

USA.gov is the U.S. government's official web portal to all federal, state and local government web resources and services.